createdAt,value
2022-12-15T00:01:40.236Z,-1.88
2022-12-15T00:04:28.223Z,-1.59
2022-12-15T00:07:13.315Z,-1.39
2022-12-15T00:09:58.555Z,-1.18
2022-12-15T00:12:43.772Z,-1.32
2022-12-15T00:15:28.687Z,-1.41
2022-12-15T00:18:13.587Z,-1.45
2022-12-15T00:20:58.743Z,-1.61
2022-12-15T00:23:43.752Z,-1.67
2022-12-15T00:26:28.821Z,-1.69
2022-12-15T00:29:14.164Z,-1.65
2022-12-15T00:31:59.220Z,-1.78
2022-12-15T00:34:44.435Z,-1.79
2022-12-15T00:37:29.633Z,-1.96
2022-12-15T00:39:59.122Z,-1.98
2022-12-15T00:42:28.568Z,-2.25
2022-12-15T00:44:56.173Z,-2.08
2022-12-15T00:47:23.042Z,-1.92
2022-12-15T00:50:08.630Z,-2.06
2022-12-15T00:52:54.384Z,-1.86
2022-12-15T00:55:39.745Z,-1.88
2022-12-15T00:58:24.909Z,-1.76
2022-12-15T01:01:09.985Z,-2.00
2022-12-15T01:03:55.413Z,-1.67
2022-12-15T01:06:40.661Z,-1.65
2022-12-15T01:09:28.527Z,-1.71
2022-12-15T01:12:13.462Z,-1.61
2022-12-15T01:14:59.053Z,-1.61
2022-12-15T01:17:44.036Z,-1.70
2022-12-15T01:20:34.201Z,-1.67
2022-12-15T01:23:00.776Z,-1.71
2022-12-15T01:25:27.891Z,-1.78
2022-12-15T01:27:54.791Z,-1.90
2022-12-15T01:30:26.844Z,-1.80
2022-12-15T01:32:53.437Z,-1.83
2022-12-15T01:35:20.623Z,-1.95
2022-12-15T01:37:49.976Z,-2.15
2022-12-15T01:40:37.154Z,-1.89
2022-12-15T01:43:03.686Z,-1.79
2022-12-15T01:45:30.160Z,-1.67
2022-12-15T01:48:04.992Z,-1.69
2022-12-15T01:50:34.088Z,-1.70
2022-12-15T01:53:00.733Z,-1.80
2022-12-15T01:55:28.789Z,-1.87
2022-12-15T01:57:59.171Z,-1.94
2022-12-15T02:00:26.554Z,-1.93
2022-12-15T02:02:54.077Z,-1.93
2022-12-15T02:05:21.385Z,-1.96
2022-12-15T02:07:47.900Z,-1.71
2022-12-15T02:10:16.575Z,-1.72
2022-12-15T02:13:07.824Z,-1.55
2022-12-15T02:15:50.726Z,-1.84
2022-12-15T02:18:23.080Z,-1.81
2022-12-15T02:20:58.520Z,-1.75
2022-12-15T02:23:45.598Z,-1.77
2022-12-15T02:26:44.665Z,-1.66
2022-12-15T02:29:29.927Z,-1.79
2022-12-15T02:32:07.196Z,-1.79
2022-12-15T02:34:49.351Z,-1.88
2022-12-15T02:37:20.621Z,-2.06
2022-12-15T02:39:47.139Z,-1.88
2022-12-15T02:42:13.727Z,-1.78
2022-12-15T02:44:44.502Z,-1.74
2022-12-15T02:47:46.480Z,-1.83
2022-12-15T02:50:29.658Z,-1.78
2022-12-15T02:53:33.541Z,-1.70
2022-12-15T02:56:24.279Z,-1.92
2022-12-15T02:59:20.389Z,-2.00
2022-12-15T03:01:53.829Z,-1.99
2022-12-15T03:04:20.831Z,-2.03
2022-12-15T03:07:00.577Z,-2.15
2022-12-15T03:09:27.817Z,-2.21
2022-12-15T03:11:54.261Z,-2.18
2022-12-15T03:14:21.065Z,-2.18
2022-12-15T03:16:47.798Z,-2.22
2022-12-15T03:19:14.369Z,-2.19
2022-12-15T03:21:40.820Z,-2.45
2022-12-15T03:24:07.690Z,-2.40
2022-12-15T03:26:34.144Z,-2.25
2022-12-15T03:29:00.728Z,-2.10
2022-12-15T03:31:27.388Z,-2.27
2022-12-15T03:33:53.931Z,-2.40
2022-12-15T03:36:20.415Z,-2.56
2022-12-15T03:38:46.941Z,-2.65
2022-12-15T03:41:13.420Z,-2.60
2022-12-15T03:43:39.858Z,-2.57
2022-12-15T03:46:06.471Z,-2.69
2022-12-15T03:48:33.061Z,-2.57
2022-12-15T03:50:59.552Z,-2.48
2022-12-15T03:53:26.044Z,-2.52
2022-12-15T03:55:52.544Z,-2.57
2022-12-15T03:58:19.577Z,-2.65
2022-12-15T04:00:46.079Z,-2.86
2022-12-15T04:03:12.691Z,-2.85
2022-12-15T04:05:39.264Z,-2.79
2022-12-15T04:08:05.913Z,-2.75
2022-12-15T04:10:35.124Z,-2.70
2022-12-15T04:13:08.260Z,-2.63
2022-12-15T04:15:36.239Z,-2.51
2022-12-15T04:18:05.830Z,-2.35
2022-12-15T04:20:33.141Z,-2.18
2022-12-15T04:23:02.649Z,-2.43
2022-12-15T04:25:47.735Z,-2.47
2022-12-15T04:28:32.956Z,-2.56
2022-12-15T04:31:27.309Z,-2.66
2022-12-15T04:34:16.339Z,-2.73
2022-12-15T04:37:03.983Z,-2.47
2022-12-15T04:39:49.559Z,-2.36
2022-12-15T04:42:34.704Z,-2.39
2022-12-15T04:45:22.629Z,-2.38
2022-12-15T04:48:07.567Z,-2.37
2022-12-15T04:50:53.272Z,-2.42
2022-12-15T04:53:39.322Z,-2.47
2022-12-15T04:56:29.653Z,-2.50
2022-12-15T04:59:15.463Z,-2.44
2022-12-15T05:02:00.648Z,-2.51
2022-12-15T05:04:45.971Z,-2.47
2022-12-15T05:07:31.031Z,-2.36
2022-12-15T05:10:16.389Z,-2.31
2022-12-15T05:13:02.517Z,-2.27
2022-12-15T05:15:48.257Z,-2.06
2022-12-15T05:18:33.419Z,-2.07
2022-12-15T05:21:18.749Z,-2.14
2022-12-15T05:24:03.749Z,-2.06
2022-12-15T05:26:52.689Z,-1.97
2022-12-15T05:29:38.629Z,-2.04
2022-12-15T05:32:05.261Z,-1.91
2022-12-15T05:34:33.049Z,-2.01
2022-12-15T05:37:01.489Z,-1.85
2022-12-15T05:39:28.594Z,-1.89
2022-12-15T05:41:56.382Z,-1.81
2022-12-15T05:44:26.373Z,-1.66
2022-12-15T05:46:53.021Z,-1.52
2022-12-15T05:49:20.288Z,-1.45
2022-12-15T05:51:47.817Z,-1.42
2022-12-15T05:54:17.490Z,-1.60
2022-12-15T05:56:45.086Z,-1.69
2022-12-15T05:59:12.364Z,-1.51
2022-12-15T06:01:39.145Z,-1.42
2022-12-15T06:04:05.936Z,-1.73
2022-12-15T06:06:32.493Z,-1.41
2022-12-15T06:08:59.520Z,-1.33
2022-12-15T06:11:26.584Z,-1.42
2022-12-15T06:13:53.232Z,-1.45
2022-12-15T06:16:21.241Z,-1.33
2022-12-15T06:18:51.146Z,-1.41
2022-12-15T06:21:20.078Z,-1.32
2022-12-15T06:23:47.964Z,-1.37
2022-12-15T06:26:20.501Z,-1.07
2022-12-15T06:29:11.684Z,-1.35
2022-12-15T06:31:38.953Z,-1.30
2022-12-15T06:34:10.304Z,-1.41
2022-12-15T06:36:36.826Z,-1.14
2022-12-15T06:39:05.596Z,-1.12
2022-12-15T06:41:32.428Z,-0.95
2022-12-15T06:43:59.880Z,-1.14
2022-12-15T06:46:28.269Z,-1.19
2022-12-15T06:48:55.383Z,-1.22
2022-12-15T06:51:22.150Z,-1.28
2022-12-15T06:53:49.130Z,-1.25
2022-12-15T06:56:24.394Z,-1.30
2022-12-15T06:58:55.570Z,-1.19
2022-12-15T07:01:23.359Z,-0.97
2022-12-15T07:03:50.914Z,-1.42
2022-12-15T07:06:18.015Z,-1.40
2022-12-15T07:08:49.094Z,-1.05
2022-12-15T07:11:16.301Z,-1.19
2022-12-15T07:13:42.775Z,-0.80
2022-12-15T07:16:11.805Z,-1.02
2022-12-15T07:18:38.977Z,-0.93
2022-12-15T07:21:08.096Z,-0.69
2022-12-15T07:23:53.506Z,-0.64
2022-12-15T07:26:21.098Z,-0.63
2022-12-15T07:28:47.619Z,-1.05
2022-12-15T07:31:15.243Z,-1.22
2022-12-15T07:33:41.891Z,-1.25
2022-12-15T07:36:08.813Z,-1.18
2022-12-15T07:38:36.204Z,-1.31
2022-12-15T07:41:05.134Z,-1.40
2022-12-15T07:43:32.545Z,-0.94
2022-12-15T07:45:59.815Z,-1.04
2022-12-15T07:48:27.348Z,-1.13
2022-12-15T07:51:01.237Z,-1.32
2022-12-15T07:53:33.987Z,-1.39
2022-12-15T07:56:09.918Z,-1.53
2022-12-15T07:58:37.457Z,-1.20
2022-12-15T08:01:09.850Z,-1.24
2022-12-15T08:03:37.701Z,-1.44
2022-12-15T08:06:12.626Z,-1.08
2022-12-15T08:08:39.899Z,-0.90
2022-12-15T08:11:11.758Z,-0.82
2022-12-15T08:16:25.951Z,-1.28
2022-12-15T08:18:52.861Z,-1.29
2022-12-15T08:21:19.345Z,-1.30
2022-12-15T08:23:45.969Z,-1.23
2022-12-15T08:26:15.071Z,-1.25
2022-12-15T08:28:42.667Z,-1.01
2022-12-15T08:31:20.745Z,-1.05
2022-12-15T08:33:48.517Z,-1.25
2022-12-15T08:36:17.083Z,-1.55
2022-12-15T08:38:45.432Z,-1.02
2022-12-15T08:41:23.089Z,-1.19
2022-12-15T08:43:51.281Z,-1.61
2022-12-15T08:46:19.976Z,-1.40
2022-12-15T08:48:46.843Z,-1.19
2022-12-15T08:51:14.266Z,-1.11
2022-12-15T08:53:41.015Z,-1.15
2022-12-15T08:56:21.107Z,-0.88
2022-12-15T08:58:55.741Z,-0.88
2022-12-15T09:01:24.468Z,-1.27
2022-12-15T09:03:56.047Z,-1.08
2022-12-15T09:06:25.296Z,-1.05
2022-12-15T09:08:56.466Z,-0.71
2022-12-15T09:11:24.442Z,-0.77
2022-12-15T09:13:51.718Z,-0.58
2022-12-15T09:16:20.596Z,-0.67
2022-12-15T09:18:51.601Z,-0.35
2022-12-15T09:21:22.161Z,-0.42
2022-12-15T09:23:53.850Z,-0.45
2022-12-15T09:26:22.619Z,-0.30
2022-12-15T09:28:50.895Z,-0.15
2022-12-15T09:31:21.724Z,-0.15
2022-12-15T09:33:50.223Z,0.26
2022-12-15T09:36:16.751Z,0.10
2022-12-15T09:38:43.624Z,0.29
2022-12-15T09:41:13.061Z,0.22
2022-12-15T09:44:23.088Z,0.15
2022-12-15T09:47:13.134Z,0.03
2022-12-15T09:49:53.178Z,0.05
2022-12-15T09:52:22.058Z,0.19
2022-12-15T09:54:48.655Z,-0.10
2022-12-15T09:57:46.689Z,-0.14
2022-12-15T10:00:25.388Z,-0.44
2022-12-15T10:03:08.382Z,-0.02
2022-12-15T10:06:15.536Z,0.20
2022-12-15T10:08:33.247Z,0.04
2022-12-15T10:11:18.570Z,-0.21
2022-12-15T10:13:52.245Z,-0.23
2022-12-15T10:16:25.503Z,-0.14
2022-12-15T10:19:08.893Z,-0.38
2022-12-15T10:21:36.396Z,-0.19
2022-12-15T10:24:37.286Z,-0.08
2022-12-15T10:27:22.582Z,-0.74
2022-12-15T10:30:01.253Z,-0.58
2022-12-15T10:32:42.432Z,-0.21
2022-12-15T10:35:28.842Z,-0.32
2022-12-15T10:38:00.327Z,-0.63
2022-12-15T10:40:50.410Z,-0.53
2022-12-15T10:43:26.547Z,-0.47
2022-12-15T10:46:01.946Z,-0.60
2022-12-15T10:48:28.533Z,-0.39
2022-12-15T10:51:13.924Z,-0.22
2022-12-15T10:54:05.151Z,-0.71
2022-12-15T10:56:34.128Z,-0.26
2022-12-15T10:59:25.885Z,-0.25
2022-12-15T11:01:52.960Z,-0.16
2022-12-15T11:04:27.952Z,-0.24
2022-12-15T11:07:03.469Z,-0.56
2022-12-15T11:09:36.044Z,-0.39
2022-12-15T11:12:35.578Z,-0.48
2022-12-15T11:15:02.079Z,-0.16
2022-12-15T11:17:42.776Z,-0.40
2022-12-15T11:20:20.989Z,-0.46
2022-12-15T11:23:01.550Z,-0.10
2022-12-15T11:25:38.137Z,-0.10
2022-12-15T11:28:15.679Z,0.20
2022-12-15T11:30:50.452Z,0.52
2022-12-15T11:33:17.054Z,0.64
2022-12-15T11:36:00.667Z,0.66
2022-12-15T11:38:36.950Z,0.33
2022-12-15T11:41:31.369Z,0.79
2022-12-15T11:44:28.284Z,1.21
2022-12-15T11:47:07.090Z,1.17
2022-12-15T11:49:49.445Z,0.71
2022-12-15T11:52:35.692Z,0.57
2022-12-15T11:55:27.788Z,0.69
2022-12-15T11:58:32.114Z,0.74
2022-12-15T12:01:25.871Z,1.29
2022-12-15T12:04:16.145Z,0.67
2022-12-15T12:07:19.368Z,0.76
2022-12-15T12:10:03.101Z,0.26
2022-12-15T12:12:50.628Z,0.01
2022-12-15T12:15:29.819Z,0.24
2022-12-15T12:18:06.085Z,-0.04
2022-12-15T12:21:01.721Z,0.00
2022-12-15T12:23:38.216Z,-0.20
2022-12-15T12:26:12.364Z,0.30
2022-12-15T12:28:46.780Z,0.27
2022-12-15T12:31:22.821Z,0.30
2022-12-15T12:33:54.235Z,0.41
2022-12-15T12:36:20.912Z,-0.14
2022-12-15T12:38:50.449Z,-0.18
2022-12-15T12:41:52.775Z,-0.36
2022-12-15T12:44:38.410Z,-0.26
2022-12-15T12:47:30.712Z,-0.30
2022-12-15T12:50:18.635Z,0.22
2022-12-15T12:52:56.065Z,-0.02
2022-12-15T12:55:40.550Z,-0.53
2022-12-15T12:58:34.761Z,-0.27
2022-12-15T13:01:17.202Z,-0.01
2022-12-15T13:03:43.853Z,0.04
2022-12-15T13:06:42.343Z,0.22
2022-12-15T13:09:17.642Z,0.14
2022-12-15T13:11:52.841Z,-0.18
2022-12-15T13:14:26.261Z,0.20
2022-12-15T13:17:25.923Z,0.23
2022-12-15T13:19:59.233Z,-0.18
2022-12-15T13:22:31.577Z,-0.14
2022-12-15T13:24:58.411Z,0.30
2022-12-15T13:27:35.709Z,0.17
2022-12-15T13:30:08.028Z,0.01
2022-12-15T13:32:35.735Z,-0.02
2022-12-15T13:35:24.895Z,0.11
2022-12-15T13:37:59.759Z,-0.43
2022-12-15T13:40:33.125Z,0.02
2022-12-15T13:43:29.448Z,-0.01
2022-12-15T13:46:00.088Z,-0.12
2022-12-15T13:48:36.862Z,-0.08
2022-12-15T13:51:14.544Z,-0.42
2022-12-15T13:53:51.499Z,-0.27
2022-12-15T13:56:37.584Z,-0.19
2022-12-15T13:59:16.408Z,-0.12
2022-12-15T14:01:51.396Z,0.05
2022-12-15T14:04:19.076Z,-0.11
2022-12-15T14:06:50.854Z,-0.43
2022-12-15T14:09:28.825Z,-0.51
2022-12-15T14:11:55.673Z,-0.48
2022-12-15T14:14:30.067Z,-0.71
2022-12-15T14:17:02.937Z,-0.72
2022-12-15T14:19:40.831Z,-0.39
2022-12-15T14:22:21.743Z,-0.43
2022-12-15T14:25:00.390Z,-0.56
2022-12-15T14:27:30.479Z,-0.68
2022-12-15T14:30:33.177Z,-0.39
2022-12-15T14:33:07.892Z,-0.57
2022-12-15T14:35:44.235Z,-0.49
2022-12-15T14:38:32.170Z,-0.02
2022-12-15T14:41:02.058Z,-0.21
2022-12-15T14:43:34.878Z,-0.63
2022-12-15T14:46:12.187Z,-0.63
2022-12-15T14:48:42.842Z,-0.51
2022-12-15T14:51:12.832Z,0.22
2022-12-15T14:53:42.017Z,0.44
2022-12-15T14:56:25.742Z,0.62
2022-12-15T14:59:05.296Z,0.46
2022-12-15T15:01:40.838Z,-0.03
2022-12-15T15:04:25.050Z,0.03
2022-12-15T15:07:00.180Z,0.00
2022-12-15T15:09:29.855Z,-0.23
2022-12-15T15:12:06.758Z,-0.21
2022-12-15T15:14:46.125Z,-0.11
2022-12-15T15:17:12.631Z,-0.33
2022-12-15T15:19:46.638Z,-0.62
2022-12-15T15:22:21.481Z,-0.69
2022-12-15T15:24:51.291Z,-0.76
2022-12-15T15:27:34.626Z,-0.86
2022-12-15T15:30:20.236Z,-0.95
2022-12-15T15:32:52.620Z,-0.74
2022-12-15T15:35:19.981Z,-0.72
2022-12-15T15:37:46.534Z,-0.58
2022-12-15T15:40:15.920Z,-0.94
2022-12-15T15:42:45.192Z,-0.96
2022-12-15T15:45:15.878Z,-1.05
2022-12-15T15:47:47.104Z,-1.07
2022-12-15T15:50:17.365Z,-0.98
2022-12-15T15:52:44.012Z,-0.89
2022-12-15T15:55:20.925Z,-0.87
2022-12-15T15:57:47.421Z,-0.94
2022-12-15T16:00:19.497Z,-1.04
2022-12-15T16:02:46.215Z,-1.15
2022-12-15T16:05:13.844Z,-1.15
2022-12-15T16:07:42.216Z,-1.29
2022-12-15T16:10:14.084Z,-1.17
2022-12-15T16:12:45.350Z,-1.22
2022-12-15T16:15:31.542Z,-1.09
2022-12-15T16:17:59.136Z,-1.07
2022-12-15T16:20:28.999Z,-1.06
2022-12-15T16:23:17.301Z,-1.08
2022-12-15T16:25:51.204Z,-1.19
2022-12-15T16:28:23.161Z,-1.11
2022-12-15T16:30:50.756Z,-1.02
2022-12-15T16:33:17.738Z,-1.16
2022-12-15T16:35:45.385Z,-1.14
2022-12-15T16:38:32.113Z,-1.19
2022-12-15T16:41:06.139Z,-1.04
2022-12-15T16:43:38.129Z,-1.03
2022-12-15T16:46:06.329Z,-1.10
2022-12-15T16:48:33.409Z,-1.12
2022-12-15T16:51:00.238Z,-1.17
2022-12-15T16:53:30.235Z,-1.28
2022-12-15T16:55:59.484Z,-1.22
2022-12-15T16:58:28.214Z,-1.23
2022-12-15T17:00:55.487Z,-1.07
2022-12-15T17:03:25.926Z,-1.14
2022-12-15T17:06:01.740Z,-1.24
2022-12-15T17:08:39.952Z,-1.31
2022-12-15T17:11:11.907Z,-1.08
2022-12-15T17:13:45.530Z,-1.11
2022-12-15T17:16:15.805Z,-1.07
2022-12-15T17:18:42.899Z,-1.20
2022-12-15T17:21:15.787Z,-1.30
2022-12-15T17:23:44.985Z,-1.39
2022-12-15T17:26:29.524Z,-1.47
2022-12-15T17:29:00.239Z,-1.12
2022-12-15T17:31:30.240Z,-1.12
2022-12-15T17:34:02.540Z,-1.09
2022-12-15T17:36:29.358Z,-1.49
2022-12-15T17:39:00.601Z,-1.24
2022-12-15T17:41:59.363Z,-1.31
2022-12-15T17:44:37.335Z,-1.37
2022-12-15T17:47:07.957Z,-1.38
2022-12-15T17:49:37.652Z,-1.47
2022-12-15T17:52:29.785Z,-1.43
2022-12-15T17:54:56.734Z,-1.53
2022-12-15T17:57:23.369Z,-1.51
2022-12-15T17:59:49.998Z,-1.56
2022-12-15T18:02:16.788Z,-1.34
2022-12-15T18:04:44.348Z,-1.31
2022-12-15T18:07:18.428Z,-1.35
2022-12-15T18:09:45.173Z,-1.42
2022-12-15T18:12:27.637Z,-1.52
2022-12-15T18:14:55.765Z,-1.40
2022-12-15T18:17:22.920Z,-1.44
2022-12-15T18:19:49.419Z,-1.59
2022-12-15T18:22:22.443Z,-1.45
2022-12-15T18:24:50.959Z,-1.61
2022-12-15T18:27:28.923Z,-1.74
2022-12-15T18:29:56.450Z,-1.50
2022-12-15T18:32:25.827Z,-1.55
2022-12-15T18:34:53.515Z,-1.81
2022-12-15T18:37:22.666Z,-1.52
2022-12-15T18:39:49.905Z,-1.60
2022-12-15T18:42:19.072Z,-1.68
2022-12-15T18:44:51.033Z,-1.46
2022-12-15T18:47:23.172Z,-1.43
2022-12-15T18:49:50.076Z,-1.49
2022-12-15T18:52:22.561Z,-1.50
2022-12-15T18:54:50.405Z,-1.71
2022-12-15T18:57:33.661Z,-1.63
2022-12-15T19:00:15.321Z,-1.63
2022-12-15T19:02:42.192Z,-1.54
2022-12-15T19:05:27.380Z,-1.61
2022-12-15T19:08:00.337Z,-1.79
2022-12-15T19:10:28.628Z,-1.50
2022-12-15T19:12:58.511Z,-1.69
2022-12-15T19:15:25.645Z,-1.81
2022-12-15T19:18:10.820Z,-1.64
2022-12-15T19:20:56.166Z,-1.78
2022-12-15T19:23:22.990Z,-1.70
2022-12-15T19:25:51.203Z,-1.71
2022-12-15T19:28:23.288Z,-1.90
2022-12-15T19:30:50.678Z,-1.69
2022-12-15T19:33:18.880Z,-1.67
2022-12-15T19:35:50.300Z,-1.86
2022-12-15T19:38:23.843Z,-1.81
2022-12-15T19:40:53.366Z,-1.75
2022-12-15T19:43:21.664Z,-1.75
2022-12-15T19:45:48.878Z,-1.80
2022-12-15T19:48:20.021Z,-1.80
2022-12-15T19:50:51.721Z,-1.80
2022-12-15T19:53:25.406Z,-1.89
2022-12-15T19:55:54.313Z,-1.85
2022-12-15T19:58:30.981Z,-1.64
2022-12-15T20:01:00.896Z,-1.59
2022-12-15T20:03:29.330Z,-1.47
2022-12-15T20:05:57.851Z,-1.67
2022-12-15T20:08:27.486Z,-1.57
2022-12-15T20:10:55.367Z,-1.30
2022-12-15T20:13:22.499Z,-1.59
2022-12-15T20:15:49.374Z,-1.95
2022-12-15T20:18:15.997Z,-1.86
2022-12-15T20:20:45.413Z,-1.76
2022-12-15T20:23:31.625Z,-1.85
2022-12-15T20:25:58.492Z,-1.90
2022-12-15T20:28:27.743Z,-2.03
2022-12-15T20:30:56.253Z,-2.03
2022-12-15T20:33:23.134Z,-1.70
2022-12-15T20:35:50.912Z,-1.98
2022-12-15T20:38:23.421Z,-1.70
2022-12-15T20:40:50.357Z,-1.76
2022-12-15T20:43:20.362Z,-1.86
2022-12-15T20:45:51.969Z,-1.91
2022-12-15T20:48:21.580Z,-1.77
2022-12-15T20:50:49.511Z,-1.69
2022-12-15T20:53:21.966Z,-1.80
2022-12-15T20:55:50.326Z,-1.81
2022-12-15T20:58:17.936Z,-1.94
2022-12-15T21:00:45.779Z,-1.74
2022-12-15T21:03:18.193Z,-1.73
2022-12-15T21:05:45.787Z,-1.89
2022-12-15T21:08:23.057Z,-1.85
2022-12-15T21:10:50.809Z,-1.86
2022-12-15T21:13:22.301Z,-1.87
2022-12-15T21:15:49.113Z,-1.79
2022-12-15T21:21:06.242Z,-1.92
2022-12-15T21:23:36.404Z,-1.84
2022-12-15T21:26:05.190Z,-1.76
2022-12-15T21:28:32.030Z,-1.84
2022-12-15T21:30:58.903Z,-1.64
2022-12-15T21:33:25.650Z,-1.71
2022-12-15T21:35:52.165Z,-1.89
2022-12-15T21:38:32.030Z,-1.78
2022-12-15T21:41:01.651Z,-1.75
2022-12-15T21:43:31.616Z,-1.48
2022-12-15T21:45:59.975Z,-1.48
2022-12-15T21:48:44.766Z,-1.39
2022-12-15T21:51:16.572Z,-1.65
2022-12-15T21:53:44.492Z,-1.50
2022-12-15T21:56:18.883Z,-1.42
2022-12-15T21:58:48.845Z,-1.63
2022-12-15T22:01:19.893Z,-1.66
2022-12-15T22:03:52.182Z,-1.55
2022-12-15T22:06:20.890Z,-1.45
2022-12-15T22:08:47.848Z,-1.53
2022-12-15T22:11:22.149Z,-1.70
2022-12-15T22:13:50.708Z,-1.57
2022-12-15T22:16:17.796Z,-1.46
2022-12-15T22:18:48.466Z,-1.60
2022-12-15T22:21:15.517Z,-1.96
2022-12-15T22:23:42.011Z,-1.71
2022-12-15T22:26:19.458Z,-1.52
2022-12-15T22:28:46.256Z,-1.75
2022-12-15T22:31:12.864Z,-1.78
2022-12-15T22:33:39.459Z,-1.84
2022-12-15T22:36:06.209Z,-1.79
2022-12-15T22:38:33.026Z,-1.83
2022-12-15T22:41:00.486Z,-1.95
2022-12-15T22:43:36.440Z,-1.91
2022-12-15T22:46:04.217Z,-1.73
2022-12-15T22:48:35.222Z,-1.81
2022-12-15T22:51:01.889Z,-1.83
2022-12-15T22:53:32.229Z,-1.93
2022-12-15T22:56:01.052Z,-1.83
2022-12-15T22:58:47.290Z,-1.60
2022-12-15T23:01:13.836Z,-1.78
2022-12-15T23:03:40.342Z,-1.75
2022-12-15T23:06:06.982Z,-1.99
2022-12-15T23:08:33.491Z,-2.05
2022-12-15T23:11:18.232Z,-1.86
2022-12-15T23:13:45.318Z,-1.80
2022-12-15T23:16:21.377Z,-1.71
2022-12-15T23:18:53.595Z,-1.98
2022-12-15T23:21:22.868Z,-2.01
2022-12-15T23:23:49.663Z,-1.81
2022-12-15T23:26:19.269Z,-1.79
2022-12-15T23:28:45.946Z,-1.94
2022-12-15T23:31:12.888Z,-1.78
2022-12-15T23:33:39.511Z,-1.59
2022-12-15T23:36:06.366Z,-1.67
2022-12-15T23:38:32.883Z,-1.84
2022-12-15T23:40:59.430Z,-1.69
2022-12-15T23:43:27.596Z,-1.58
2022-12-15T23:46:02.956Z,-1.61
2022-12-15T23:48:35.867Z,-1.89
2022-12-15T23:51:17.554Z,-1.82
2022-12-15T23:53:45.876Z,-1.75
2022-12-15T23:56:16.273Z,-1.73
2022-12-15T23:58:44.939Z,-1.71
